Time;durP1;ratioP1;P1;durP2;ratioP2;P2;SDS_P1;SDS_P2;PMS_P1;PMS_P2;Temp;Humidity;BMP_temperature;BMP_pressure;BME280_temperature;BME280_humidity;BME280_pressure;Samples;Min_cycle;Max_cycle;Signal;HPM_P1;HPM_P2
2022/09/25 00:00:23;;;;;;;0.20;0.20;;;12.30;99.90;;;;;;5055291;28;20071;-69
2022/09/25 00:02:49;;;;;;;0.52;0.40;;;12.40;99.90;;;;;;5055500;28;20085;-70
2022/09/25 00:05:15;;;;;;;0.30;0.25;;;12.30;99.90;;;;;;5053584;28;20548;-69
2022/09/25 00:07:40;;;;;;;0.55;0.45;;;12.30;99.90;;;;;;5054312;28;20135;-70
2022/09/25 00:10:07;;;;;;;0.88;0.50;;;12.20;99.90;;;;;;5053943;28;20037;-70
2022/09/25 00:12:33;;;;;;;1.52;0.70;;;12.30;99.90;;;;;;5053218;28;20049;-69
2022/09/25 00:14:59;;;;;;;0.32;0.30;;;12.30;99.90;;;;;;5053719;28;20040;-70
2022/09/25 00:17:25;;;;;;;0.73;0.45;;;12.30;99.90;;;;;;5054526;28;20044;-70
2022/09/25 00:19:51;;;;;;;1.15;0.20;;;12.30;99.90;;;;;;5054496;28;20037;-70
2022/09/25 00:22:19;;;;;;;0.40;0.20;;;12.20;99.90;;;;;;5054117;28;20041;-70
2022/09/25 00:24:45;;;;;;;0.20;0.20;;;12.10;99.90;;;;;;5053658;28;20496;-71
2022/09/25 00:27:11;;;;;;;0.45;0.30;;;12.20;99.90;;;;;;5052343;28;20037;-70
2022/09/25 00:29:38;;;;;;;0.40;0.20;;;12.10;99.90;;;;;;5054064;28;20099;-70
2022/09/25 00:32:06;;;;;;;0.82;0.38;;;12.10;99.90;;;;;;5053770;28;20040;-69
2022/09/25 00:34:32;;;;;;;0.32;0.30;;;12.00;99.90;;;;;;5054101;28;20032;-70
2022/09/25 00:36:57;;;;;;;0.45;0.30;;;11.90;99.90;;;;;;5053916;28;20390;-70
2022/09/25 00:39:24;;;;;;;0.32;0.22;;;12.10;99.90;;;;;;5054080;28;20082;-70
2022/09/25 00:41:50;;;;;;;0.20;0.20;;;12.00;99.90;;;;;;5054193;28;20040;-69
2022/09/25 00:44:56;;;;;;;0.40;0.20;;;12.00;99.90;;;;;;5054920;28;20025;-69
2022/09/25 00:47:42;;;;;;;0.32;0.20;;;12.10;99.90;;;;;;5055786;28;20469;-69
2022/09/25 00:50:21;;;;;;;0.20;0.20;;;12.10;99.90;;;;;;5053987;28;20381;-70
2022/09/25 00:52:48;;;;;;;0.47;0.30;;;12.10;99.90;;;;;;5053693;28;20076;-70
2022/09/25 00:55:14;;;;;;;0.20;0.20;;;12.10;99.90;;;;;;5053592;28;20177;-70
2022/09/25 00:57:45;;;;;;;0.30;0.20;;;12.10;99.90;;;;;;5052279;28;20040;-69
2022/09/25 01:00:11;;;;;;;;;;;12.10;99.90;;;;;;5052482;28;20052;-69
2022/09/25 01:02:45;;;;;;;0.60;0.40;;;12.20;99.90;;;;;;5051941;28;19909;-70
2022/09/25 01:05:15;;;;;;;0.47;0.30;;;12.20;99.90;;;;;;5053886;28;20037;-70
2022/09/25 01:07:44;;;;;;;0.93;0.60;;;12.10;99.90;;;;;;5055115;28;20041;-70
2022/09/25 01:10:11;;;;;;;0.77;0.45;;;12.20;99.90;;;;;;5052340;28;20272;-70
2022/09/25 01:12:43;;;;;;;3.92;0.40;;;12.20;99.90;;;;;;5051681;28;20052;-70
2022/09/25 01:15:12;;;;;;;0.88;0.40;;;12.20;99.90;;;;;;5052970;28;20047;-70
2022/09/25 01:17:40;;;;;;;1.05;0.57;;;12.30;99.90;;;;;;5053101;28;20040;-70
2022/09/25 01:20:38;;;;;;;0.82;0.40;;;12.20;99.90;;;;;;5052697;28;20033;-70
2022/09/25 01:23:07;;;;;;;0.25;0.13;;;12.20;99.90;;;;;;5029304;28;20070;-70
2022/09/25 01:25:53;;;;;;;0.55;0.40;;;12.10;99.90;;;;;;5051651;28;20127;-69
2022/09/25 01:28:57;;;;;;;1.05;0.40;;;12.00;99.90;;;;;;5053790;28;20071;-69
2022/09/25 01:31:50;;;;;;;0.80;0.50;;;11.90;99.90;;;;;;5052898;28;20032;-70
2022/09/25 01:34:31;;;;;;;0.57;0.45;;;11.90;99.90;;;;;;5052471;28;20048;-70
2022/09/25 01:37:11;;;;;;;0.80;0.47;;;11.90;99.90;;;;;;5046550;28;20127;-70
2022/09/25 01:39:57;;;;;;;1.10;0.75;;;11.90;99.90;;;;;;5032403;28;20041;-70
2022/09/25 01:42:28;;;;;;;0.63;0.43;;;11.90;99.90;;;;;;5032729;28;20041;-70
2022/09/25 01:45:08;;;;;;;1.23;0.65;;;12.00;99.90;;;;;;5031730;28;20488;-70
2022/09/25 01:47:39;;;;;;;0.80;0.40;;;12.10;99.90;;;;;;5033715;28;20029;-69
2022/09/25 01:50:11;;;;;;;;;;;12.20;99.90;;;;;;5031678;28;20048;-70
2022/09/25 01:52:43;;;;;;;1.08;0.52;;;12.30;99.90;;;;;;5031326;28;19923;-70
2022/09/25 01:55:17;;;;;;;1.13;0.52;;;12.20;99.90;;;;;;5031953;28;20053;-70
2022/09/25 01:57:52;;;;;;;0.82;0.40;;;12.20;99.90;;;;;;5034513;28;20041;-69
2022/09/25 02:00:21;;;;;;;0.88;0.50;;;12.30;99.90;;;;;;5032858;28;20378;-70
2022/09/25 02:03:05;;;;;;;0.40;0.40;;;12.40;99.90;;;;;;5032206;28;20106;-69
2022/09/25 02:05:47;;;;;;;0.60;0.40;;;12.40;99.90;;;;;;5032196;28;20049;-69
2022/09/25 02:08:20;;;;;;;0.30;0.30;;;12.30;99.90;;;;;;5032380;28;20125;-69
2022/09/25 02:10:57;;;;;;;1.02;0.50;;;12.20;99.90;;;;;;5047827;28;20405;-69
2022/09/25 02:13:33;;;;;;;0.60;0.40;;;12.20;99.90;;;;;;5032959;28;20500;-69
2022/09/25 02:16:04;;;;;;;2.45;0.70;;;12.20;99.90;;;;;;5032969;28;20037;-69
2022/09/25 02:21:41;;;;;;;0.82;0.47;;;12.10;99.90;;;;;;5034069;28;20132;-70
2022/09/25 02:24:19;;;;;;;0.80;0.50;;;12.10;99.90;;;;;;5032888;28;20045;-70
2022/09/25 02:26:46;;;;;;;0.52;0.40;;;12.10;99.90;;;;;;5032841;28;20091;-70
2022/09/25 02:29:12;;;;;;;0.50;0.35;;;12.30;99.90;;;;;;5032805;28;20463;-69
2022/09/25 02:31:43;;;;;;;0.50;0.30;;;12.30;99.90;;;;;;5032062;28;20045;-70
2022/09/25 02:34:10;;;;;;;0.98;0.52;;;12.30;99.90;;;;;;5047363;28;20045;-70
2022/09/25 02:36:36;;;;;;;1.05;0.63;;;12.30;99.90;;;;;;5032742;28;20098;-69
2022/09/25 02:39:04;;;;;;;1.15;0.63;;;12.20;99.90;;;;;;5047269;28;20045;-69
2022/09/25 02:41:59;;;;;;;1.00;0.70;;;12.30;99.90;;;;;;5030834;28;20064;-70
2022/09/25 02:45:04;;;;;;;1.13;0.60;;;12.30;99.90;;;;;;5019313;28;20045;-70
2022/09/25 02:47:54;;;;;;;1.55;0.55;;;12.40;99.90;;;;;;5034147;28;20090;-70
2022/09/25 02:50:26;;;;;;;1.17;0.63;;;12.40;99.90;;;;;;5035584;28;20034;-70
2022/09/25 02:53:14;;;;;;;1.13;0.52;;;12.30;99.90;;;;;;5036143;28;20053;-70
2022/09/25 02:56:03;;;;;;;2.25;0.60;;;12.30;99.90;;;;;;5036600;28;20084;-70
2022/09/25 02:58:45;;;;;;;2.55;0.75;;;12.30;99.90;;;;;;5036001;28;20401;-69
2022/09/25 03:01:17;;;;;;;0.98;0.50;;;12.30;99.90;;;;;;5035704;28;20439;-70
2022/09/25 03:03:46;;;;;;;0.93;0.63;;;12.20;99.90;;;;;;5036695;28;20037;-70
2022/09/25 03:06:12;;;;;;;2.80;0.60;;;12.10;99.90;;;;;;5034617;28;20046;-70
2022/09/25 03:08:48;;;;;;;1.52;0.60;;;12.20;99.90;;;;;;5035908;28;20045;-70
2022/09/25 03:11:18;;;;;;;1.35;0.50;;;12.20;99.90;;;;;;5034840;28;20057;-70
2022/09/25 03:13:44;;;;;;;1.25;0.50;;;12.40;99.90;;;;;;5033466;28;20115;-70
2022/09/25 03:16:19;;;;;;;2.13;0.50;;;12.50;99.90;;;;;;5034117;28;20565;-70
2022/09/25 03:18:46;;;;;;;4.03;0.60;;;12.30;99.90;;;;;;5052311;28;20091;-70
2022/09/25 03:21:12;;;;;;;0.77;0.50;;;12.10;99.90;;;;;;5036435;28;20036;-70
2022/09/25 03:23:39;;;;;;;0.70;0.60;;;12.00;99.90;;;;;;5034201;28;20048;-70
2022/09/25 03:26:06;;;;;;;3.03;0.40;;;11.90;99.90;;;;;;5018006;28;20072;-70
2022/09/25 03:28:33;;;;;;;0.70;0.43;;;11.80;99.90;;;;;;5037680;28;20083;-70
2022/09/25 03:31:01;;;;;;;0.77;0.63;;;11.70;99.90;;;;;;5035369;28;20037;-70
2022/09/25 03:33:34;;;;;;;0.70;0.50;;;11.60;99.90;;;;;;5035376;28;20501;-70
2022/09/25 03:36:08;;;;;;;0.77;0.50;;;11.50;99.90;;;;;;5034957;28;20405;-69
2022/09/25 03:38:34;;;;;;;0.70;0.40;;;11.40;99.90;;;;;;5036766;28;20076;-69
2022/09/25 03:41:00;;;;;;;3.53;0.60;;;11.30;99.90;;;;;;5035746;28;20500;-69
2022/09/25 03:43:27;;;;;;;1.73;0.70;;;11.40;99.90;;;;;;5035509;28;20076;-70
2022/09/25 03:45:52;;;;;;;0.95;0.63;;;11.40;99.90;;;;;;5036339;28;20164;-70
2022/09/25 03:48:18;;;;;;;2.53;0.47;;;11.50;99.90;;;;;;5037232;28;20049;-70
2022/09/25 03:50:48;;;;;;;1.10;0.45;;;11.50;99.90;;;;;;5034242;28;20519;-70
2022/09/25 03:53:14;;;;;;;0.55;0.30;;;11.70;99.90;;;;;;5034914;28;20057;-70
2022/09/25 03:55:40;;;;;;;1.17;0.50;;;11.90;99.90;;;;;;5035272;28;20091;-70
2022/09/25 03:58:07;;;;;;;1.27;0.60;;;11.90;99.90;;;;;;5036024;28;20041;-70
2022/09/25 04:00:32;;;;;;;0.47;0.47;;;11.80;99.90;;;;;;5036768;28;20060;-70
2022/09/25 04:02:58;;;;;;;1.27;0.50;;;11.80;99.90;;;;;;5036715;28;20477;-70
2022/09/25 04:05:25;;;;;;;3.33;0.52;;;12.00;99.90;;;;;;5036632;28;20124;-70
2022/09/25 04:07:53;;;;;;;0.50;0.40;;;12.10;99.90;;;;;;5034984;28;20033;-70
2022/09/25 04:10:19;;;;;;;0.77;0.50;;;12.10;99.90;;;;;;5035036;28;20053;-70
2022/09/25 04:12:45;;;;;;;0.50;0.50;;;12.20;99.90;;;;;;5035443;28;20452;-70
2022/09/25 04:15:12;;;;;;;0.52;0.40;;;12.10;99.90;;;;;;5035343;28;20048;-70
2022/09/25 04:17:38;;;;;;;0.38;0.38;;;12.10;99.90;;;;;;5033452;28;20128;-70
2022/09/25 04:20:04;;;;;;;1.02;0.60;;;11.90;99.90;;;;;;5032795;28;20393;-70
2022/09/25 04:22:30;;;;;;;1.27;0.50;;;12.00;99.90;;;;;;5034729;28;20517;-70
2022/09/25 04:24:57;;;;;;;3.63;0.50;;;12.00;99.90;;;;;;5034621;28;20037;-70
2022/09/25 04:27:23;;;;;;;0.60;0.47;;;11.90;99.90;;;;;;5034948;28;20037;-70
2022/09/25 04:29:49;;;;;;;8.73;0.60;;;11.90;99.90;;;;;;5034385;28;20053;-70
2022/09/25 04:35:00;;;;;;;1.23;0.52;;;11.90;99.90;;;;;;5033984;28;20068;-70
2022/09/25 04:37:27;;;;;;;0.57;0.50;;;12.00;99.90;;;;;;5034797;28;20045;-70
2022/09/25 04:39:57;;;;;;;1.08;0.40;;;12.10;99.90;;;;;;5033224;28;20041;-70
2022/09/25 04:42:24;;;;;;;1.13;0.65;;;12.10;99.90;;;;;;5034317;28;20048;-71
2022/09/25 04:44:52;;;;;;;0.60;0.50;;;12.20;99.90;;;;;;5045202;28;20037;-70
2022/09/25 04:47:19;;;;;;;0.40;0.40;;;12.30;99.90;;;;;;5053200;28;20041;-70
2022/09/25 04:49:45;;;;;;;1.15;0.70;;;12.30;99.90;;;;;;5052860;28;20043;-70
2022/09/25 04:52:12;;;;;;;1.00;0.68;;;12.20;99.90;;;;;;5052528;28;20475;-70
2022/09/25 04:54:38;;;;;;;1.27;0.50;;;12.30;99.90;;;;;;5053234;28;20067;-70
2022/09/25 04:57:05;;;;;;;0.80;0.55;;;12.30;99.90;;;;;;5054376;28;20037;-70
2022/09/25 04:59:31;;;;;;;0.70;0.50;;;12.40;99.90;;;;;;5054251;28;20037;-70
2022/09/25 05:01:57;;;;;;;0.80;0.43;;;12.40;99.90;;;;;;5053401;28;20047;-69
2022/09/25 05:04:23;;;;;;;0.55;0.40;;;12.40;99.90;;;;;;5053523;28;20033;-70
2022/09/25 05:06:50;;;;;;;1.00;0.60;;;12.40;99.90;;;;;;5053731;28;20045;-70
2022/09/25 05:09:16;;;;;;;8.60;0.73;;;12.40;99.90;;;;;;5054623;28;20052;-70
2022/09/25 05:11:42;;;;;;;0.77;0.40;;;12.30;99.90;;;;;;5052123;28;20091;-70
2022/09/25 05:14:08;;;;;;;0.63;0.50;;;12.20;99.90;;;;;;5053388;28;20071;-70
2022/09/25 05:16:35;;;;;;;0.65;0.63;;;12.10;99.90;;;;;;5053462;28;20051;-70
2022/09/25 05:19:01;;;;;;;0.60;0.50;;;12.00;99.90;;;;;;5052908;28;20029;-70
2022/09/25 05:21:26;;;;;;;1.42;0.60;;;12.00;99.90;;;;;;5053114;28;20130;-69
2022/09/25 05:23:54;;;;;;;5.57;0.70;;;12.00;99.90;;;;;;5052198;28;20037;-70
2022/09/25 05:26:20;;;;;;;4.13;0.80;;;11.90;99.90;;;;;;5052820;28;20124;-70
2022/09/25 05:28:51;;;;;;;0.77;0.63;;;11.90;99.90;;;;;;5052921;28;20159;-70
2022/09/25 05:31:17;;;;;;;0.85;0.63;;;11.90;99.90;;;;;;5052225;28;20055;-70
2022/09/25 05:33:43;;;;;;;8.30;1.55;;;11.90;99.90;;;;;;5052260;28;20136;-70
2022/09/25 05:36:09;;;;;;;1.83;0.75;;;11.90;99.90;;;;;;5052426;28;20049;-70
2022/09/25 05:38:38;;;;;;;0.80;0.63;;;11.90;99.90;;;;;;5053015;28;20047;-70
2022/09/25 05:41:07;;;;;;;0.85;0.70;;;11.90;99.90;;;;;;5051499;28;20049;-70
2022/09/25 05:43:38;;;;;;;6.97;1.60;;;12.00;99.90;;;;;;5043397;28;20041;-70
2022/09/25 05:46:05;;;;;;;1.35;0.90;;;12.00;99.90;;;;;;5032635;28;20053;-70
2022/09/25 05:48:31;;;;;;;1.42;0.80;;;12.00;99.90;;;;;;5032753;28;20096;-70
2022/09/25 05:50:57;;;;;;;1.40;1.00;;;12.00;99.90;;;;;;5032574;28;20504;-70
2022/09/25 05:53:25;;;;;;;1.88;1.05;;;12.00;99.90;;;;;;5033185;28;20486;-70
2022/09/25 05:55:57;;;;;;;2.42;0.80;;;12.00;99.90;;;;;;5033121;28;20033;-70
2022/09/25 05:58:23;;;;;;;0.98;0.80;;;11.90;99.90;;;;;;5032472;28;20037;-70
2022/09/25 06:00:49;;;;;;;2.47;0.75;;;11.90;99.90;;;;;;5032242;28;20453;-70
2022/09/25 06:03:16;;;;;;;1.67;1.00;;;12.00;99.90;;;;;;5031647;28;20120;-70
2022/09/25 06:05:45;;;;;;;1.42;0.90;;;12.10;99.90;;;;;;5033088;28;20041;-70
2022/09/25 06:08:12;;;;;;;3.13;0.90;;;12.10;99.90;;;;;;5032184;28;20511;-70
2022/09/25 06:10:39;;;;;;;1.30;1.10;;;12.20;99.90;;;;;;5030933;28;20042;-70
2022/09/25 06:13:04;;;;;;;1.30;0.77;;;12.30;99.90;;;;;;5047289;28;20084;-70
2022/09/25 06:15:38;;;;;;;2.17;0.80;;;12.40;99.90;;;;;;5032905;28;20069;-70
2022/09/25 06:18:05;;;;;;;1.55;0.70;;;12.30;99.90;;;;;;5048230;28;20401;-71
2022/09/25 06:20:31;;;;;;;0.98;0.80;;;12.40;99.90;;;;;;5032211;28;20056;-70
2022/09/25 06:22:59;;;;;;;1.27;0.90;;;12.30;99.90;;;;;;5033317;28;20075;-71
2022/09/25 06:25:28;;;;;;;1.17;0.70;;;12.20;99.90;;;;;;5033942;28;20519;-71
2022/09/25 06:28:01;;;;;;;5.10;1.10;;;12.20;99.90;;;;;;5033180;28;20068;-71
2022/09/25 06:30:33;;;;;;;0.70;0.45;;;12.20;99.90;;;;;;5032151;28;20405;-70
2022/09/25 06:33:08;;;;;;;1.73;1.10;;;12.30;99.90;;;;;;5030878;28;20057;-70
2022/09/25 06:35:39;;;;;;;2.00;0.98;;;12.20;99.90;;;;;;5032042;28;20217;-71
2022/09/25 06:38:06;;;;;;;1.58;1.00;;;12.20;99.90;;;;;;5031573;28;20030;-70
2022/09/25 06:40:32;;;;;;;2.30;1.10;;;12.30;99.90;;;;;;5049531;28;20040;-70
2022/09/25 06:43:00;;;;;;;1.65;1.13;;;12.30;99.90;;;;;;5051777;28;20098;-70
2022/09/25 06:45:27;;;;;;;4.50;1.27;;;12.50;99.90;;;;;;5053256;28;20032;-70
2022/09/25 06:47:58;;;;;;;1.05;0.93;;;12.60;99.90;;;;;;5052392;28;20135;-71
2022/09/25 06:50:30;;;;;;;2.25;0.95;;;12.60;99.90;;;;;;5052071;28;20504;-70
2022/09/25 06:53:00;;;;;;;1.38;1.10;;;12.40;99.90;;;;;;5053343;28;20079;-70
2022/09/25 06:55:33;;;;;;;2.03;0.95;;;12.40;99.90;;;;;;5052231;28;20045;-70
2022/09/25 06:58:00;;;;;;;1.48;0.90;;;12.50;99.90;;;;;;5052935;28;20094;-70
2022/09/25 07:00:26;;;;;;;1.95;1.23;;;12.60;99.90;;;;;;5067507;28;20496;-70
2022/09/25 07:05:36;;;;;;;1.02;0.90;;;12.80;99.90;;;;;;5052935;28;20449;-70
2022/09/25 07:08:02;;;;;;;2.10;1.15;;;12.70;99.90;;;;;;5051732;28;20127;-70
2022/09/25 07:10:28;;;;;;;2.33;1.40;;;12.70;99.90;;;;;;5051850;28;20491;-70
2022/09/25 07:12:54;;;;;;;3.38;1.17;;;12.60;99.90;;;;;;5051807;28;20495;-70
2022/09/25 07:15:21;;;;;;;1.67;1.10;;;12.40;99.90;;;;;;5051496;28;20083;-70
2022/09/25 07:17:48;;;;;;;1.45;0.95;;;12.40;99.90;;;;;;5051641;28;20037;-70
2022/09/25 07:20:14;;;;;;;2.47;1.35;;;12.40;99.90;;;;;;5051106;28;20146;-70
2022/09/25 07:22:41;;;;;;;1.42;0.73;;;12.60;99.90;;;;;;5051461;28;20626;-70
2022/09/25 07:25:09;;;;;;;1.67;0.90;;;12.80;99.90;;;;;;5051356;28;20044;-70
2022/09/25 07:27:36;;;;;;;1.77;0.82;;;12.70;99.90;;;;;;5051767;28;20126;-70
2022/09/25 07:30:03;;;;;;;1.23;0.80;;;12.50;99.90;;;;;;5051568;28;20489;-70
2022/09/25 07:32:30;;;;;;;1.15;0.75;;;12.60;99.90;;;;;;5051961;28;20086;-70
2022/09/25 07:34:57;;;;;;;1.10;0.85;;;12.60;99.90;;;;;;5054814;28;20033;-70
2022/09/25 07:37:23;;;;;;;3.22;0.75;;;12.60;99.90;;;;;;5055464;28;20056;-70
2022/09/25 07:39:49;;;;;;;1.98;1.10;;;12.70;99.90;;;;;;5056811;28;20040;-70
2022/09/25 07:42:16;;;;;;;3.65;1.20;;;12.70;99.90;;;;;;5056830;28;20029;-70
2022/09/25 07:44:42;;;;;;;1.90;1.20;;;12.70;99.90;;;;;;5056847;28;20033;-70
2022/09/25 07:47:12;;;;;;;2.05;1.00;;;12.70;99.90;;;;;;5056875;28;20128;-70
2022/09/25 07:49:39;;;;;;;3.65;1.02;;;12.90;99.90;;;;;;5054195;28;20033;-70
2022/09/25 07:52:05;;;;;;;2.60;1.42;;;12.90;99.90;;;;;;5053214;28;20515;-70
2022/09/25 07:54:32;;;;;;;1.98;1.23;;;12.90;99.90;;;;;;5054687;28;20044;-70
2022/09/25 07:56:58;;;;;;;1.30;1.00;;;12.70;99.90;;;;;;5054454;28;20130;-70
2022/09/25 07:59:23;;;;;;;2.90;1.17;;;12.70;99.90;;;;;;5055141;28;20033;-70
2022/09/25 08:01:49;;;;;;;2.13;1.40;;;12.80;99.90;;;;;;5054924;28;20143;-70
2022/09/25 08:04:15;;;;;;;3.20;1.02;;;12.90;99.90;;;;;;5055404;28;20040;-71
2022/09/25 08:06:41;;;;;;;2.17;1.10;;;13.00;99.90;;;;;;5054926;28;20037;-70
2022/09/25 08:09:09;;;;;;;1.40;0.95;;;13.00;99.90;;;;;;5055582;28;20559;-70
2022/09/25 08:11:35;;;;;;;1.60;1.33;;;12.90;99.90;;;;;;5049829;28;20052;-71
2022/09/25 08:14:02;;;;;;;2.58;1.35;;;13.00;99.90;;;;;;5033688;28;20431;-71
2022/09/25 08:16:27;;;;;;;3.53;1.27;;;13.00;99.90;;;;;;5032441;28;20033;-72
2022/09/25 08:18:54;;;;;;;1.63;1.10;;;13.00;99.90;;;;;;5041499;28;20048;-71
2022/09/25 08:21:20;;;;;;;1.77;1.33;;;12.90;99.90;;;;;;5037795;28;20040;-71
2022/09/25 08:23:51;;;;;;;2.03;1.40;;;13.00;99.90;;;;;;5032270;28;20033;-71
2022/09/25 08:26:22;;;;;;;3.67;1.45;;;12.90;99.90;;;;;;5033058;28;20037;-71
2022/09/25 08:28:49;;;;;;;3.50;1.33;;;12.80;99.90;;;;;;5032717;28;20053;-72
2022/09/25 08:31:16;;;;;;;4.03;1.40;;;12.80;99.90;;;;;;5033128;28;20129;-71
2022/09/25 08:33:47;;;;;;;2.47;1.50;;;12.90;99.90;;;;;;5046996;28;20072;-71
2022/09/25 08:36:13;;;;;;;2.83;1.50;;;12.90;99.90;;;;;;5052041;28;20056;-70
2022/09/25 08:38:39;;;;;;;2.20;1.42;;;12.90;99.90;;;;;;5052285;28;20049;-71
2022/09/25 08:41:28;;;;;;;2.70;1.65;;;12.90;99.90;;;;;;5049879;28;20048;-71
2022/09/25 08:44:09;;;;;;;2.58;1.30;;;12.90;99.90;;;;;;5049135;28;20527;-73
2022/09/25 08:49:25;;;;;;;2.03;1.20;;;12.90;99.90;;;;;;5050351;28;20079;-71
2022/09/25 08:51:56;;;;;;;4.57;1.13;;;12.90;99.90;;;;;;5053178;28;20087;-71
2022/09/25 08:54:30;;;;;;;1.33;0.90;;;12.80;99.90;;;;;;5052803;28;20548;-70
2022/09/25 08:57:21;;;;;;;2.40;1.40;;;12.80;99.90;;;;;;5052278;28;20044;-69
2022/09/25 08:59:54;;;;;;;2.80;1.30;;;12.80;99.90;;;;;;5052712;28;20435;-72
2022/09/25 09:02:23;;;;;;;2.90;1.20;;;12.70;99.90;;;;;;5052348;28;20056;-72
2022/09/25 09:04:55;;;;;;;5.38;1.63;;;12.70;99.90;;;;;;5051604;28;20819;-71
2022/09/25 09:07:36;;;;;;;2.92;1.50;;;12.80;99.90;;;;;;5052409;28;20045;-72
2022/09/25 09:10:25;;;;;;;1.88;1.35;;;12.80;99.90;;;;;;5052462;28;20040;-72
2022/09/25 09:13:00;;;;;;;2.58;1.48;;;12.80;99.90;;;;;;5054015;28;20091;-72
2022/09/25 09:15:48;;;;;;;1.30;1.00;;;12.80;99.90;;;;;;5052877;28;20381;-69
2022/09/25 09:18:25;;;;;;;3.88;1.58;;;13.00;99.90;;;;;;5051882;28;20064;-71
2022/09/25 09:21:31;;;;;;;1.35;1.17;;;12.90;99.90;;;;;;5051118;28;20378;-73
2022/09/25 09:24:13;;;;;;;3.13;1.27;;;12.90;99.90;;;;;;5050340;28;20052;-71
2022/09/25 09:27:06;;;;;;;1.90;1.05;;;12.90;99.90;;;;;;5064384;28;20040;-71
2022/09/25 09:29:38;;;;;;;1.00;0.75;;;12.90;99.90;;;;;;5051218;28;20475;-71
2022/09/25 09:32:25;;;;;;;1.63;1.30;;;13.10;99.90;;;;;;5053283;28;20041;-72
2022/09/25 09:35:12;;;;;;;1.30;0.88;;;12.90;99.90;;;;;;5051849;28;20033;-71
2022/09/25 09:37:48;;;;;;;2.05;1.15;;;13.30;99.90;;;;;;5049954;28;20094;-71
2022/09/25 09:40:20;;;;;;;1.67;1.10;;;13.50;99.90;;;;;;5032946;28;20043;-71
2022/09/25 09:42:50;;;;;;;0.95;0.88;;;13.30;99.90;;;;;;5048477;28;20041;-70
2022/09/25 09:45:37;;;;;;;1.55;1.10;;;13.10;99.90;;;;;;5031419;28;20203;-71
2022/09/25 09:48:19;;;;;;;1.40;1.10;;;13.00;99.90;;;;;;5032772;28;20440;-71
2022/09/25 09:50:57;;;;;;;2.13;1.42;;;13.10;99.90;;;;;;5032836;28;20175;-71
2022/09/25 09:53:27;;;;;;;3.50;1.00;;;13.00;99.90;;;;;;5031118;28;20068;-71
2022/09/25 09:56:00;;;;;;;3.40;1.40;;;12.90;99.90;;;;;;5033028;28;20037;-72
2022/09/25 09:58:32;;;;;;;2.22;1.00;;;13.00;99.90;;;;;;5034040;28;20496;-71
2022/09/25 10:00:58;;;;;;;1.25;0.82;;;13.10;99.90;;;;;;5034589;28;20042;-72
2022/09/25 10:03:28;;;;;;;2.55;1.20;;;13.00;99.90;;;;;;5032777;28;20045;-72
2022/09/25 10:06:01;;;;;;;1.35;1.05;;;12.90;99.90;;;;;;5032945;28;20047;-71
2022/09/25 10:08:28;;;;;;;3.10;0.90;;;12.90;99.90;;;;;;5032923;28;20041;-71
2022/09/25 10:10:55;;;;;;;1.23;0.90;;;12.80;99.90;;;;;;5032096;28;20055;-72
2022/09/25 10:13:31;;;;;;;1.85;1.15;;;12.80;99.90;;;;;;5031232;28;20578;-71
2022/09/25 10:16:03;;;;;;;0.80;0.80;;;12.90;99.90;;;;;;5031055;28;20033;-71
2022/09/25 10:18:36;;;;;;;2.47;0.95;;;12.90;99.90;;;;;;5048779;28;20037;-72
2022/09/25 10:21:12;;;;;;;0.80;0.73;;;13.00;99.90;;;;;;5032238;28;20036;-72
2022/09/25 10:23:39;;;;;;;1.17;0.98;;;13.10;99.90;;;;;;5032216;28;20040;-72
2022/09/25 10:26:28;;;;;;;2.78;1.13;;;13.20;99.90;;;;;;5031998;28;20068;-72
2022/09/25 10:28:56;;;;;;;1.67;0.90;;;13.10;99.90;;;;;;5032529;28;20030;-72
2022/09/25 10:31:25;;;;;;;1.80;0.98;;;13.10;99.90;;;;;;5032411;28;20048;-72
2022/09/25 10:34:02;;;;;;;1.10;0.80;;;13.00;99.90;;;;;;5033087;28;20390;-72
2022/09/25 10:36:34;;;;;;;1.23;0.65;;;13.10;99.90;;;;;;5047445;28;20682;-72
2022/09/25 10:39:01;;;;;;;1.60;0.70;;;13.20;99.90;;;;;;5033123;28;20092;-73
2022/09/25 10:41:27;;;;;;;1.20;0.80;;;13.20;99.90;;;;;;5051874;28;20064;-72
2022/09/25 10:43:58;;;;;;;1.20;0.90;;;13.30;99.90;;;;;;5052246;28;20063;-72
2022/09/25 10:52:14;;;;;;;1.58;1.10;;;13.40;99.90;;;;;;5052097;28;20147;-72
2022/09/25 10:54:41;;;;;;;1.23;1.05;;;13.50;99.90;;;;;;5052784;28;20040;-72
2022/09/25 10:57:33;;;;;;;3.25;1.13;;;13.40;99.90;;;;;;5052620;28;20037;-72
2022/09/25 11:00:01;;;;;;;1.63;1.17;;;13.50;99.90;;;;;;5052032;28;20135;-72
2022/09/25 11:02:40;;;;;;;5.30;1.10;;;13.70;99.90;;;;;;5051689;28;20047;-72
2022/09/25 11:05:18;;;;;;;2.45;0.70;;;13.90;99.90;;;;;;5051420;28;20052;-73
2022/09/25 11:07:54;;;;;;;1.48;1.02;;;13.80;99.90;;;;;;5053746;28;20041;-73
2022/09/25 11:10:30;;;;;;;2.38;0.90;;;13.90;99.90;;;;;;5055263;28;20151;-74
2022/09/25 11:12:57;;;;;;;1.02;0.90;;;13.90;99.90;;;;;;5054340;28;20513;-74
2022/09/25 11:15:26;;;;;;;1.73;0.80;;;14.10;99.90;;;;;;5054062;28;20485;-74
2022/09/25 11:17:55;;;;;;;1.60;0.93;;;14.10;99.90;;;;;;5054478;28;20040;-74
2022/09/25 11:20:29;;;;;;;2.95;0.90;;;14.20;99.90;;;;;;5056162;28;20152;-75
2022/09/25 11:23:03;;;;;;;1.50;1.00;;;14.20;99.90;;;;;;5072844;28;20044;-75
2022/09/25 11:25:42;;;;;;;1.27;0.60;;;14.10;99.90;;;;;;5055469;28;20051;-74
2022/09/25 11:28:32;;;;;;;1.52;0.80;;;14.00;99.90;;;;;;5055192;28;20114;-74
2022/09/25 11:31:17;;;;;;;1.07;0.87;;;14.10;99.90;;;;;;5055562;28;20120;-75
2022/09/25 11:33:49;;;;;;;1.40;1.00;;;14.10;99.90;;;;;;5056515;28;20135;-74
2022/09/25 11:36:21;;;;;;;1.38;0.90;;;14.50;99.90;;;;;;5055350;28;20037;-74
2022/09/25 11:41:47;;;;;;;1.27;0.47;;;14.50;99.90;;;;;;5057139;28;20112;-74
2022/09/25 11:44:30;;;;;;;0.65;0.50;;;14.90;99.90;;;;;;5054896;28;20049;-75
2022/09/25 11:47:03;;;;;;;0.57;0.50;;;15.00;99.90;;;;;;5054942;28;20033;-71
2022/09/25 11:49:39;;;;;;;0.20;0.20;;;15.70;99.90;;;;;;5054768;28;20057;-75
2022/09/25 11:52:08;;;;;;;0.60;0.40;;;15.90;99.90;;;;;;5055004;28;20044;-75
2022/09/25 11:54:49;;;;;;;0.50;0.40;;;16.10;99.90;;;;;;5055450;28;20102;-76
2022/09/25 11:57:29;;;;;;;0.63;0.40;;;16.20;99.90;;;;;;5054961;28;20119;-76
2022/09/25 12:00:19;;;;;;;0.70;0.40;;;15.90;99.90;;;;;;5056208;28;20503;-76
2022/09/25 12:02:52;;;;;;;0.30;0.30;;;16.10;99.90;;;;;;5056635;28;20095;-76
2022/09/25 12:05:27;;;;;;;0.30;0.30;;;15.70;99.90;;;;;;5054602;28;20045;-75
2022/09/25 12:08:14;;;;;;;0.55;0.40;;;15.70;99.90;;;;;;5056352;28;20029;-75
2022/09/25 12:10:55;;;;;;;0.77;0.40;;;15.80;99.90;;;;;;5055024;28;20090;-75
2022/09/25 12:13:44;;;;;;;0.60;0.38;;;16.10;99.90;;;;;;5055031;28;20394;-75
2022/09/25 12:16:37;;;;;;;0.70;0.43;;;15.80;99.90;;;;;;5053734;28;20040;-75
2022/09/25 12:19:16;;;;;;;1.25;0.57;;;15.60;99.90;;;;;;5055503;28;20033;-75
2022/09/25 12:22:09;;;;;;;0.73;0.30;;;15.80;99.90;;;;;;5053513;28;20104;-75
2022/09/25 12:25:15;;;;;;;0.52;0.40;;;15.80;99.90;;;;;;5054005;28;20072;-74
2022/09/25 12:27:57;;;;;;;0.22;0.22;;;16.10;99.90;;;;;;5014354;28;20092;-75
2022/09/25 12:30:44;;;;;;;2.20;0.30;;;16.10;99.90;;;;;;5049444;28;20033;-75
2022/09/25 12:33:49;;;;;;;0.43;0.30;;;16.40;99.90;;;;;;5055837;28;20080;-74
2022/09/25 12:36:39;;;;;;;0.20;0.20;;;16.20;99.90;;;;;;5055987;28;20049;-74
2022/09/25 12:39:32;;;;;;;0.43;0.40;;;16.00;99.90;;;;;;5057057;28;20060;-75
2022/09/25 12:42:18;;;;;;;0.60;0.30;;;15.80;99.90;;;;;;5048875;28;20098;-75
2022/09/25 12:44:53;;;;;;;1.25;0.50;;;15.80;99.90;;;;;;5033368;28;20156;-74
2022/09/25 12:47:33;;;;;;;0.75;0.60;;;15.60;99.90;;;;;;5033708;28;20041;-75
2022/09/25 12:50:31;;;;;;;0.40;0.30;;;15.40;99.90;;;;;;5039283;28;20504;-75
2022/09/25 12:53:08;;;;;;;0.57;0.50;;;15.30;99.90;;;;;;5006878;28;20080;-73
2022/09/25 12:55:42;;;;;;;0.50;0.30;;;15.40;99.90;;;;;;5036892;28;20069;-75
2022/09/25 12:58:30;;;;;;;2.55;0.40;;;15.20;99.90;;;;;;5052934;28;20103;-75
2022/09/25 13:01:12;;;;;;;2.75;0.40;;;15.40;99.90;;;;;;5051160;28;20035;-72
2022/09/25 13:03:42;;;;;;;0.80;0.50;;;15.50;99.90;;;;;;5051604;28;20049;-75
2022/09/25 13:06:29;;;;;;;0.63;0.40;;;15.90;99.90;;;;;;5051740;28;20041;-75
2022/09/25 13:09:16;;;;;;;0.50;0.40;;;15.90;99.90;;;;;;5053243;28;20037;-75
2022/09/25 13:11:59;;;;;;;0.90;0.40;;;15.90;99.90;;;;;;5051773;28;20532;-75
2022/09/25 13:14:38;;;;;;;0.50;0.40;;;15.80;99.90;;;;;;5053723;28;20045;-75
2022/09/25 13:17:09;;;;;;;0.30;0.30;;;15.80;99.90;;;;;;5053928;28;20044;-75
2022/09/25 13:19:35;;;;;;;;;;;15.50;99.90;;;;;;5054071;28;20037;-75
2022/09/25 13:22:19;;;;;;;0.93;0.30;;;15.40;99.90;;;;;;5052913;28;19920;-76
2022/09/25 13:24:51;;;;;;;0.65;0.40;;;15.80;99.90;;;;;;5052560;28;20033;-75
2022/09/25 13:27:21;;;;;;;0.60;0.40;;;15.70;99.90;;;;;;5041980;28;20045;-76
2022/09/25 13:29:59;;;;;;;0.22;0.20;;;15.90;99.90;;;;;;5033883;28;20481;-75
2022/09/25 13:32:33;;;;;;;0.32;0.32;;;16.00;99.90;;;;;;5032998;28;20053;-75
2022/09/25 13:35:14;;;;;;;0.35;0.25;;;15.70;99.90;;;;;;5033394;28;20040;-75